Airfield :
LOGIN :

Register | Disclaimer

   EN    FR    IT 

 










Legend :    VFR   Marginal VFR   IFR   Intensive IFR   Very Intensive IFR
Visi :
Ceiling :
>= 8 km
>= 3000ft
5 to 8 km
1000 to 3000 ft
1500m to 5 km
500 to 1000 ft
800 to 1500m
200 to 500 ft
< 800m
< 200 ft
Symbols :   Thunderstorms  Fog  Heavy snow  Heavy precipitations  Wind > 20 kt
SIGMETs :     Misc.  Thunderstorms  Icing  Turbulence  Mountain Waves  Volcanic Ashes






- Airport Elevation : 126 ft
- IATA code : WIC


EGPC - Wick

CURRENT METAR :
  • 280020Z AUTO 24006KT 9999 BKN037/// 03/M00 Q1001

EXPIRED METARs :
  • 272350Z AUTO 24006KT 9999 SCT036/// 02/00 Q1001
  • 272320Z AUTO 25004KT 9999 NCD 02/00 Q1000
  • 272250Z AUTO 26011KT 9999 NCD 02/00 Q1000
  • 272220Z AUTO 27015KT 9999 NCD 02/00 Q1000
  • 272150Z AUTO 28013KT 9999 NCD 02/00 Q0999

TAF TAF EGPC
Valid from the 28 at 00:00 until the 28 at 09:00 UTC


272259Z 2800/2809 24009KT 9999 FEW012CB
BECMG 2806/2809 18012KT
TEMPO 2806/2809 5000 RA BKN010
PROB30
TEMPO 2806/2809 3000 RADZ RASN BKN005
ATIS : +44 1955 607 596



MET'MAP, your aeronautical weather chart ! - Copyright ORBIFLY December 2007 - Disclaimer

ORBIFLY MET'MAP TEAM :

Programming & Development : Alexandra Zaïnal
Concept & original design : Baudouin d'Aumeries
Assistance for programming : Marc-Olivier Méhu
Technical & hardware support : Manuel Goepfert

Contact : metmap@orbifly.com




SOURCES & CREDITS :

   NOAA